createdAt,value
2018-08-17T00:01:05.065Z,19.67
2018-08-17T00:03:34.895Z,19.62
2018-08-17T00:06:04.774Z,19.61
2018-08-17T00:08:34.158Z,19.67
2018-08-17T00:11:03.964Z,19.65
2018-08-17T00:13:33.728Z,19.66
2018-08-17T00:16:03.601Z,19.65
2018-08-17T00:18:33.358Z,19.70
2018-08-17T00:21:03.183Z,19.74
2018-08-17T00:23:32.818Z,19.67
2018-08-17T00:26:02.237Z,19.55
2018-08-17T00:28:32.031Z,19.50
2018-08-17T00:31:01.822Z,19.47
2018-08-17T00:33:31.635Z,19.54
2018-08-17T00:36:01.360Z,19.47
2018-08-17T00:38:30.783Z,19.46
2018-08-17T00:41:00.539Z,19.35
2018-08-17T00:43:30.307Z,19.22
2018-08-17T00:46:00.007Z,19.25
2018-08-17T00:48:29.814Z,19.34
2018-08-17T00:50:59.200Z,19.25
2018-08-17T00:53:28.983Z,19.18
2018-08-17T00:55:58.768Z,19.13
2018-08-17T00:58:28.527Z,19.02
2018-08-17T01:00:58.315Z,18.99
2018-08-17T01:03:27.955Z,18.93
2018-08-17T01:05:57.296Z,18.82
2018-08-17T01:08:27.272Z,18.76
2018-08-17T01:10:57.069Z,18.87
2018-08-17T01:13:26.813Z,18.94
2018-08-17T01:15:56.587Z,18.90
2018-08-17T01:18:26.369Z,18.81
2018-08-17T01:20:56.081Z,18.73
2018-08-17T01:23:25.881Z,18.73
2018-08-17T01:25:55.639Z,18.72
2018-08-17T01:28:25.735Z,18.69
2018-08-17T01:30:55.561Z,18.66
2018-08-17T01:33:25.321Z,18.56
2018-08-17T01:35:55.033Z,18.47
2018-08-17T01:38:24.832Z,18.42
2018-08-17T01:40:54.252Z,18.28
2018-08-17T01:43:24.144Z,18.24
2018-08-17T01:45:53.848Z,18.13
2018-08-17T01:48:23.643Z,18.03
2018-08-17T01:50:53.362Z,18.00
2018-08-17T01:53:23.127Z,18.00
2018-08-17T01:55:52.536Z,17.96
2018-08-17T01:58:22.295Z,17.90
2018-08-17T02:00:52.056Z,17.84
2018-08-17T02:03:21.811Z,17.78
2018-08-17T02:05:51.495Z,17.69
2018-08-17T02:08:20.891Z,17.63
2018-08-17T02:10:50.232Z,17.58
2018-08-17T02:13:19.682Z,17.53
2018-08-17T02:15:49.397Z,17.48
2018-08-17T02:18:19.075Z,17.45
2018-08-17T02:20:48.820Z,17.42
2018-08-17T02:23:18.455Z,17.39
2018-08-17T02:25:48.184Z,17.38
2018-08-17T02:28:17.523Z,17.34
2018-08-17T02:30:47.217Z,17.30
2018-08-17T02:33:16.540Z,17.32
2018-08-17T02:35:45.907Z,17.28
2018-08-17T02:38:15.335Z,17.30
2018-08-17T02:40:45.012Z,17.30
2018-08-17T02:43:14.784Z,17.27
2018-08-17T02:45:44.623Z,17.22
2018-08-17T02:48:14.053Z,17.15
2018-08-17T02:50:43.702Z,17.11
2018-08-17T02:53:13.127Z,17.06
2018-08-17T02:55:42.880Z,17.11
2018-08-17T02:58:12.670Z,17.20
2018-08-17T03:00:42.470Z,17.25
2018-08-17T03:03:12.289Z,17.28
2018-08-17T03:05:41.737Z,17.29
2018-08-17T03:08:11.231Z,17.25
2018-08-17T03:10:41.946Z,17.25
2018-08-17T03:13:12.119Z,17.23
2018-08-17T03:15:41.550Z,17.26
2018-08-17T03:18:10.979Z,17.27
2018-08-17T03:20:40.807Z,17.27
2018-08-17T03:23:10.570Z,17.24
2018-08-17T03:25:40.382Z,17.25
2018-08-17T03:28:10.300Z,17.43
2018-08-17T03:30:40.170Z,17.40
2018-08-17T03:33:10.351Z,17.37
2018-08-17T03:35:40.119Z,17.39
2018-08-17T03:38:09.999Z,17.35
2018-08-17T03:40:39.323Z,17.32
2018-08-17T03:43:09.216Z,17.34
2018-08-17T03:45:38.993Z,17.38
2018-08-17T03:48:09.196Z,17.45
2018-08-17T03:50:38.635Z,17.50
2018-08-17T03:53:08.499Z,17.59
2018-08-17T03:55:38.327Z,17.66
2018-08-17T03:58:07.871Z,17.63
2018-08-17T04:00:37.767Z,17.62
2018-08-17T04:03:07.515Z,17.60
2018-08-17T04:05:36.950Z,17.59
2018-08-17T04:08:06.758Z,17.56
2018-08-17T04:10:36.499Z,17.58
2018-08-17T04:13:06.581Z,17.60
2018-08-17T04:15:36.439Z,17.68
2018-08-17T04:18:06.501Z,17.71
2018-08-17T04:20:36.235Z,17.72
2018-08-17T04:23:06.145Z,17.73
2018-08-17T04:25:35.927Z,17.77
2018-08-17T04:28:05.431Z,17.85
2018-08-17T04:30:35.783Z,17.92
2018-08-17T04:33:05.577Z,17.95
2018-08-17T04:35:35.421Z,17.97
2018-08-17T04:38:04.818Z,17.97
2018-08-17T04:40:34.192Z,18.05
2018-08-17T04:43:03.646Z,18.09
2018-08-17T04:45:33.550Z,18.10
2018-08-17T04:48:03.582Z,18.12
2018-08-17T04:50:33.334Z,18.18
2018-08-17T04:53:02.779Z,18.22
2018-08-17T04:55:32.162Z,18.27
2018-08-17T04:58:01.918Z,18.33
2018-08-17T05:00:31.649Z,18.38
2018-08-17T05:03:01.461Z,18.48
2018-08-17T05:05:32.017Z,18.52
2018-08-17T05:08:01.379Z,18.57
2018-08-17T05:10:31.157Z,18.63
2018-08-17T05:13:00.999Z,18.71
2018-08-17T05:15:30.848Z,18.76
2018-08-17T05:18:00.708Z,18.92
2018-08-17T05:20:30.136Z,19.09
2018-08-17T05:22:59.941Z,19.22
2018-08-17T05:25:29.419Z,19.33
2018-08-17T05:27:59.174Z,19.38
2018-08-17T05:30:28.997Z,19.48
2018-08-17T05:32:58.936Z,19.55
2018-08-17T05:35:28.620Z,19.61
2018-08-17T05:37:58.439Z,19.69
2018-08-17T05:40:27.916Z,19.78
2018-08-17T05:42:57.765Z,19.85
2018-08-17T05:45:27.179Z,19.93
2018-08-17T05:47:58.035Z,19.95
2018-08-17T05:50:30.919Z,20.10
2018-08-17T05:53:01.367Z,20.17
2018-08-17T05:55:31.578Z,20.23
2018-08-17T05:58:01.314Z,20.29
2018-08-17T06:00:30.810Z,20.37
2018-08-17T06:03:00.767Z,20.46
2018-08-17T06:05:30.541Z,20.51
2018-08-17T06:08:01.459Z,20.56
2018-08-17T06:10:31.410Z,20.69
2018-08-17T06:13:02.137Z,20.73
2018-08-17T06:15:32.020Z,20.78
2018-08-17T06:18:01.824Z,20.91
2018-08-17T06:20:31.674Z,20.95
2018-08-17T06:23:02.239Z,21.00
2018-08-17T06:25:32.190Z,21.08
2018-08-17T06:28:01.998Z,21.16
2018-08-17T06:30:44.723Z,21.25
2018-08-17T06:33:15.926Z,21.33
2018-08-17T06:35:45.474Z,21.41
2018-08-17T06:38:15.282Z,21.52
2018-08-17T06:40:45.166Z,21.64
2018-08-17T06:43:15.079Z,21.76
2018-08-17T06:45:44.615Z,21.84
2018-08-17T06:48:14.427Z,21.93
2018-08-17T06:50:44.362Z,21.99
2018-08-17T06:53:13.788Z,22.08
2018-08-17T06:55:43.213Z,22.16
2018-08-17T06:58:12.697Z,22.24
2018-08-17T07:00:42.109Z,22.33
2018-08-17T07:03:14.097Z,22.42
2018-08-17T07:05:43.464Z,22.53
2018-08-17T07:08:13.521Z,22.64
2018-08-17T07:10:42.957Z,22.74
2018-08-17T07:13:12.382Z,22.85
2018-08-17T07:15:42.273Z,22.98
2018-08-17T07:18:12.053Z,23.08
2018-08-17T07:20:41.857Z,23.17
2018-08-17T07:23:11.282Z,23.31
2018-08-17T07:25:41.177Z,23.42
2018-08-17T07:28:11.052Z,23.50
2018-08-17T07:30:40.918Z,23.58
2018-08-17T07:33:11.117Z,23.68
2018-08-17T07:35:40.772Z,23.78
2018-08-17T07:38:10.252Z,23.89
2018-08-17T07:40:39.760Z,24.00
2018-08-17T07:43:09.670Z,24.13
2018-08-17T07:45:39.808Z,24.21
2018-08-17T07:48:10.145Z,24.35
2018-08-17T07:50:40.338Z,24.41
2018-08-17T07:53:10.278Z,24.54
2018-08-17T07:55:39.802Z,24.68
2018-08-17T07:58:10.052Z,24.80
2018-08-17T08:00:39.645Z,24.74
2018-08-17T08:03:09.629Z,25.00
2018-08-17T08:05:39.193Z,25.13
2018-08-17T08:08:09.078Z,25.23
2018-08-17T08:10:41.827Z,25.31
2018-08-17T08:13:11.814Z,25.35
2018-08-17T08:15:41.736Z,25.41
2018-08-17T08:18:12.178Z,25.51
2018-08-17T08:20:44.925Z,25.57
2018-08-17T08:23:25.809Z,25.68
2018-08-17T08:25:56.494Z,25.77
2018-08-17T08:28:26.517Z,25.80
2018-08-17T08:30:56.688Z,25.89
2018-08-17T08:33:27.830Z,25.96
2018-08-17T08:35:57.647Z,25.91
2018-08-17T08:38:27.238Z,26.04
2018-08-17T08:40:57.017Z,26.13
2018-08-17T08:43:26.901Z,26.23
2018-08-17T08:45:57.216Z,26.30
2018-08-17T08:48:27.212Z,26.37
2018-08-17T08:50:56.961Z,26.40
2018-08-17T08:53:26.743Z,26.46
2018-08-17T08:55:56.556Z,26.49
2018-08-17T08:58:25.966Z,26.52
2018-08-17T09:00:55.417Z,26.58
2018-08-17T09:03:25.261Z,26.65
2018-08-17T09:05:55.753Z,26.70
2018-08-17T09:08:25.585Z,26.80
2018-08-17T09:10:55.560Z,26.87
2018-08-17T09:13:25.520Z,26.92
2018-08-17T09:15:55.209Z,26.96
2018-08-17T09:18:25.004Z,27.03
2018-08-17T09:20:55.973Z,27.14
2018-08-17T09:23:25.768Z,27.20
2018-08-17T09:25:56.496Z,27.21
2018-08-17T09:28:26.353Z,27.26
2018-08-17T09:30:56.313Z,27.31
2018-08-17T09:33:25.728Z,27.42
2018-08-17T09:35:56.211Z,27.47
2018-08-17T09:38:26.691Z,27.46
2018-08-17T09:40:58.428Z,27.48
2018-08-17T09:43:28.249Z,27.52
2018-08-17T09:45:58.096Z,27.57
2018-08-17T09:48:27.854Z,27.85
2018-08-17T09:50:57.665Z,27.83
2018-08-17T09:53:27.530Z,27.86
2018-08-17T09:55:57.396Z,27.86
2018-08-17T09:58:27.869Z,27.92
2018-08-17T10:01:02.720Z,28.14
2018-08-17T10:03:37.806Z,28.24
2018-08-17T10:06:12.739Z,28.29
2018-08-17T10:08:47.760Z,28.27
2018-08-17T10:11:18.399Z,28.18
2018-08-17T10:13:48.116Z,28.13
2018-08-17T10:16:17.609Z,28.12
2018-08-17T10:18:47.356Z,28.23
2018-08-17T10:21:17.060Z,28.25
2018-08-17T10:23:46.208Z,28.31
2018-08-17T10:26:15.601Z,28.52
2018-08-17T10:28:46.017Z,28.54
2018-08-17T10:31:18.597Z,28.51
2018-08-17T10:33:49.658Z,28.41
2018-08-17T10:36:20.027Z,28.40
2018-08-17T10:38:49.620Z,28.41
2018-08-17T10:41:19.356Z,28.49
2018-08-17T10:43:49.825Z,28.67
2018-08-17T10:46:19.570Z,28.81
2018-08-17T10:48:49.040Z,28.76
2018-08-17T10:51:18.413Z,28.71
2018-08-17T10:53:48.200Z,28.84
2018-08-17T10:56:17.930Z,28.85
2018-08-17T10:58:47.796Z,29.02
2018-08-17T11:01:17.544Z,28.94
2018-08-17T11:03:47.262Z,29.12
2018-08-17T11:06:17.720Z,29.30
2018-08-17T11:08:47.871Z,29.23
2018-08-17T11:11:20.236Z,29.31
2018-08-17T11:13:50.757Z,29.44
2018-08-17T11:16:27.965Z,29.63
2018-08-17T11:18:59.062Z,29.39
2018-08-17T11:21:29.560Z,29.28
2018-08-17T11:24:00.460Z,29.23
2018-08-17T11:26:30.811Z,29.25
2018-08-17T11:29:00.993Z,29.23
2018-08-17T11:31:30.820Z,29.31
2018-08-17T11:34:00.831Z,29.38
2018-08-17T11:36:32.312Z,29.45
2018-08-17T11:39:02.234Z,29.66
2018-08-17T11:41:32.309Z,29.81
2018-08-17T11:44:06.289Z,29.88
2018-08-17T11:46:38.329Z,29.66
2018-08-17T11:49:10.294Z,29.67
2018-08-17T11:51:43.717Z,29.62
2018-08-17T11:54:13.316Z,29.52
2018-08-17T11:56:42.802Z,29.75
2018-08-17T11:59:12.893Z,30.08
2018-08-17T12:01:44.894Z,30.33
2018-08-17T12:04:18.883Z,30.50
2018-08-17T12:06:48.237Z,30.38
2018-08-17T12:09:21.868Z,30.23
2018-08-17T12:11:52.745Z,30.31
2018-08-17T12:14:23.521Z,30.26
2018-08-17T12:16:53.954Z,30.39
2018-08-17T12:19:23.904Z,30.52
2018-08-17T12:21:54.028Z,30.55
2018-08-17T12:24:24.070Z,30.61
2018-08-17T12:26:56.039Z,30.61
2018-08-17T12:29:26.126Z,30.69
2018-08-17T12:31:55.548Z,30.72
2018-08-17T12:34:25.476Z,30.65
2018-08-17T12:36:54.932Z,30.67
2018-08-17T12:39:24.744Z,30.81
2018-08-17T12:41:54.120Z,31.00
2018-08-17T12:44:23.579Z,31.25
2018-08-17T12:46:52.986Z,31.42
2018-08-17T12:49:23.292Z,31.60
2018-08-17T12:51:56.975Z,31.74
2018-08-17T12:54:31.799Z,31.88
2018-08-17T12:57:03.787Z,31.90
2018-08-17T12:59:35.323Z,31.88
2018-08-17T13:02:04.834Z,32.12
2018-08-17T13:04:35.045Z,32.20
2018-08-17T13:07:04.844Z,32.36
2018-08-17T13:09:41.182Z,32.35
2018-08-17T13:12:10.613Z,32.32
2018-08-17T13:14:40.935Z,32.36
2018-08-17T13:17:10.484Z,32.45
2018-08-17T13:19:42.935Z,32.50
2018-08-17T13:22:12.387Z,32.39
2018-08-17T13:24:42.944Z,32.19
2018-08-17T13:27:12.829Z,32.02
2018-08-17T13:29:42.682Z,31.85
2018-08-17T13:32:12.095Z,31.86
2018-08-17T13:34:41.855Z,31.54
2018-08-17T13:37:11.576Z,31.28
2018-08-17T13:39:41.374Z,31.16
2018-08-17T13:42:20.385Z,31.07
2018-08-17T13:44:50.007Z,30.85
2018-08-17T13:47:21.270Z,30.88
2018-08-17T13:49:50.983Z,31.06
2018-08-17T13:52:20.586Z,31.28
2018-08-17T13:54:50.385Z,31.43
2018-08-17T13:57:20.252Z,31.50
2018-08-17T13:59:50.112Z,31.32
2018-08-17T14:02:20.069Z,31.30
2018-08-17T14:04:49.877Z,31.37
2018-08-17T14:07:19.842Z,31.32
2018-08-17T14:09:49.748Z,31.18
2018-08-17T14:12:19.924Z,31.01
2018-08-17T14:14:49.992Z,30.91
2018-08-17T14:17:19.779Z,30.89
2018-08-17T14:19:49.683Z,30.83
2018-08-17T14:22:19.621Z,30.88
2018-08-17T14:24:49.518Z,30.73
2018-08-17T14:27:19.323Z,30.62
2018-08-17T14:29:49.166Z,30.84
2018-08-17T14:32:19.145Z,31.30
2018-08-17T14:34:48.649Z,31.40
2018-08-17T14:37:18.504Z,31.50
2018-08-17T14:39:47.954Z,31.51
2018-08-17T14:42:17.846Z,31.44
2018-08-17T14:44:48.507Z,31.37
2018-08-17T14:47:18.364Z,31.22
2018-08-17T14:49:47.854Z,31.08
2018-08-17T14:52:17.671Z,31.04
2018-08-17T14:54:47.549Z,30.99
2018-08-17T14:57:17.431Z,31.00
2018-08-17T14:59:46.969Z,30.94
2018-08-17T15:02:16.853Z,31.01
2018-08-17T15:04:46.669Z,31.17
2018-08-17T15:07:16.298Z,31.26
2018-08-17T15:09:48.261Z,31.35
2018-08-17T15:12:17.994Z,31.43
2018-08-17T15:14:47.388Z,31.48
2018-08-17T15:17:17.357Z,31.67
2018-08-17T15:19:47.686Z,31.91
2018-08-17T15:22:17.621Z,32.29
2018-08-17T15:24:47.425Z,32.52
2018-08-17T15:27:17.753Z,32.83
2018-08-17T15:29:47.457Z,33.00
2018-08-17T15:32:17.584Z,32.98
2018-08-17T15:34:47.401Z,32.88
2018-08-17T15:37:17.375Z,32.87
2018-08-17T15:39:47.062Z,32.78
2018-08-17T15:42:16.593Z,32.84
2018-08-17T15:44:46.169Z,32.78
2018-08-17T15:47:15.724Z,32.39
2018-08-17T15:50:07.481Z,32.30
2018-08-17T15:52:37.232Z,32.41
2018-08-17T15:55:06.745Z,32.40
2018-08-17T15:57:36.438Z,32.19
2018-08-17T16:00:07.891Z,32.03
2018-08-17T16:02:37.711Z,32.02
2018-08-17T16:05:08.234Z,31.87
2018-08-17T16:07:37.753Z,31.74
2018-08-17T16:10:09.108Z,31.62
2018-08-17T16:12:39.269Z,31.39
2018-08-17T16:15:10.980Z,31.24
2018-08-17T16:17:40.498Z,31.14
2018-08-17T16:20:11.795Z,30.98
2018-08-17T16:22:42.325Z,30.82
2018-08-17T16:25:12.708Z,30.78
2018-08-17T16:27:43.006Z,30.62
2018-08-17T16:30:15.239Z,30.47
2018-08-17T16:32:45.013Z,30.45
2018-08-17T16:35:14.867Z,30.44
2018-08-17T16:37:47.991Z,30.42
2018-08-17T16:40:18.997Z,30.67
2018-08-17T16:42:52.205Z,30.86
2018-08-17T16:45:22.247Z,30.99
2018-08-17T16:47:51.656Z,31.09
2018-08-17T16:50:21.165Z,31.16
2018-08-17T16:52:51.125Z,31.18
2018-08-17T16:55:21.111Z,31.21
2018-08-17T16:57:50.543Z,31.06
2018-08-17T17:00:20.025Z,30.93
2018-08-17T17:02:49.470Z,30.87
2018-08-17T17:05:18.907Z,30.73
2018-08-17T17:07:48.377Z,30.52
2018-08-17T17:10:17.845Z,30.70
2018-08-17T17:12:47.601Z,30.89
2018-08-17T17:15:20.418Z,30.93
2018-08-17T17:18:10.878Z,30.92
2018-08-17T17:20:40.870Z,30.53
2018-08-17T17:23:12.244Z,30.12
2018-08-17T17:25:41.895Z,29.87
2018-08-17T17:28:11.831Z,29.98
2018-08-17T17:30:58.033Z,29.93
2018-08-17T17:33:27.843Z,29.73
2018-08-17T17:35:57.690Z,29.66
2018-08-17T17:38:28.288Z,29.46
2018-08-17T17:40:58.807Z,29.39
2018-08-17T17:43:28.625Z,29.33
2018-08-17T17:45:58.561Z,29.07
2018-08-17T17:48:28.120Z,28.70
2018-08-17T17:50:57.746Z,28.44
2018-08-17T17:53:27.821Z,28.17
2018-08-17T17:56:00.832Z,28.07
2018-08-17T17:58:31.303Z,27.92
2018-08-17T18:01:06.238Z,27.94
2018-08-17T18:03:36.110Z,27.99
2018-08-17T18:06:07.196Z,28.14
2018-08-17T18:08:37.055Z,28.15
2018-08-17T18:11:06.599Z,28.19
2018-08-17T18:13:36.401Z,28.20
2018-08-17T18:16:06.024Z,28.00
2018-08-17T18:18:35.896Z,27.91
2018-08-17T18:21:05.522Z,27.71
2018-08-17T18:23:35.055Z,27.43
2018-08-17T18:26:09.348Z,27.13
2018-08-17T18:28:38.912Z,26.93
2018-08-17T18:31:08.796Z,26.68
2018-08-17T18:33:38.712Z,26.56
2018-08-17T18:36:08.222Z,26.45
2018-08-17T18:38:41.212Z,26.73
2018-08-17T18:41:11.244Z,27.10
2018-08-17T18:43:42.268Z,27.01
2018-08-17T18:46:15.429Z,26.97
2018-08-17T18:48:47.038Z,26.93
2018-08-17T18:51:27.425Z,26.73
2018-08-17T18:53:56.903Z,26.80
2018-08-17T18:56:26.438Z,26.81
2018-08-17T18:58:55.932Z,26.73
2018-08-17T19:01:27.940Z,26.71
2018-08-17T19:03:58.024Z,26.55
2018-08-17T19:06:28.195Z,26.43
2018-08-17T19:08:58.024Z,26.38
2018-08-17T19:11:27.778Z,26.55
2018-08-17T19:13:57.890Z,26.61
2018-08-17T19:16:27.729Z,26.55
2018-08-17T19:18:58.550Z,26.53
2018-08-17T19:21:28.565Z,26.50
2018-08-17T19:24:02.402Z,26.40
2018-08-17T19:26:32.584Z,26.47
2018-08-17T19:29:02.418Z,26.27
2018-08-17T19:31:32.424Z,26.16
2018-08-17T19:34:10.453Z,26.12
2018-08-17T19:36:46.675Z,26.11
2018-08-17T19:39:24.910Z,26.16
2018-08-17T19:42:04.616Z,26.27
2018-08-17T19:44:47.608Z,26.15
2018-08-17T19:47:18.761Z,26.20
2018-08-17T19:49:49.025Z,26.19
2018-08-17T19:52:20.222Z,26.12
2018-08-17T19:54:50.983Z,26.15
2018-08-17T19:57:20.715Z,26.00
2018-08-17T19:59:51.100Z,26.13
2018-08-17T20:02:22.360Z,26.14
2018-08-17T20:04:53.380Z,26.08
2018-08-17T20:07:23.405Z,26.07
2018-08-17T20:09:53.492Z,26.14
2018-08-17T20:12:23.848Z,26.27
2018-08-17T20:14:53.499Z,26.32
2018-08-17T20:17:22.976Z,26.26
2018-08-17T20:19:52.405Z,26.14
2018-08-17T20:22:23.755Z,26.07
2018-08-17T20:24:53.276Z,25.94
2018-08-17T20:27:23.301Z,25.98
2018-08-17T20:29:52.780Z,25.91
2018-08-17T20:32:22.897Z,25.81
2018-08-17T20:34:53.400Z,25.71
2018-08-17T20:37:24.148Z,25.65
2018-08-17T20:39:54.521Z,25.47
2018-08-17T20:42:25.102Z,25.46
2018-08-17T20:44:55.237Z,25.39
2018-08-17T20:47:25.465Z,25.26
2018-08-17T20:49:55.585Z,25.09
2018-08-17T20:52:25.500Z,25.15
2018-08-17T20:54:55.436Z,25.02
2018-08-17T20:57:25.331Z,24.98
2018-08-17T20:59:55.217Z,24.74
2018-08-17T21:02:25.031Z,24.67
2018-08-17T21:04:55.475Z,24.55
2018-08-17T21:07:25.157Z,24.36
2018-08-17T21:09:55.172Z,24.27
2018-08-17T21:12:25.112Z,24.13
2018-08-17T21:14:54.726Z,24.06
2018-08-17T21:17:26.273Z,24.01
2018-08-17T21:19:55.800Z,24.02
2018-08-17T21:22:26.161Z,23.86
2018-08-17T21:24:56.791Z,23.97
2018-08-17T21:27:26.891Z,23.91
2018-08-17T21:29:57.543Z,23.62
2018-08-17T21:32:28.330Z,23.65
2018-08-17T21:34:57.871Z,23.38
2018-08-17T21:37:28.421Z,23.37
2018-08-17T21:40:02.172Z,23.27
2018-08-17T21:42:32.399Z,23.33
2018-08-17T21:45:02.770Z,23.16
2018-08-17T21:47:34.006Z,23.13
2018-08-17T21:50:14.059Z,22.87
2018-08-17T21:52:45.080Z,22.73
2018-08-17T21:55:15.734Z,22.70
2018-08-17T21:57:53.192Z,22.63
2018-08-17T22:00:29.815Z,22.59
2018-08-17T22:03:00.111Z,22.57
2018-08-17T22:05:33.326Z,22.59
2018-08-17T22:08:05.087Z,22.39
2018-08-17T22:10:36.227Z,22.48
2018-08-17T22:13:11.968Z,22.33
2018-08-17T22:15:42.014Z,22.28
2018-08-17T22:18:11.558Z,22.27
2018-08-17T22:20:42.118Z,22.18
2018-08-17T22:23:12.188Z,22.20
2018-08-17T22:25:44.485Z,22.11
2018-08-17T22:28:14.308Z,22.08
2018-08-17T22:30:45.506Z,22.15
2018-08-17T22:33:15.370Z,22.17
2018-08-17T22:35:46.124Z,22.09
2018-08-17T22:38:15.695Z,22.09
2018-08-17T22:40:46.219Z,21.97
2018-08-17T22:43:15.630Z,21.93
2018-08-17T22:45:45.231Z,21.98
2018-08-17T22:48:15.101Z,22.00
2018-08-17T22:50:45.682Z,21.95
2018-08-17T22:53:16.509Z,21.99
2018-08-17T22:55:47.326Z,21.83
2018-08-17T22:58:17.694Z,21.94
2018-08-17T23:00:48.685Z,21.88
2018-08-17T23:03:18.121Z,21.80
2018-08-17T23:05:47.793Z,21.76
2018-08-17T23:08:20.735Z,21.75
2018-08-17T23:10:51.154Z,21.87
2018-08-17T23:13:21.394Z,21.80
2018-08-17T23:15:53.712Z,21.78
2018-08-17T23:18:28.118Z,21.72
2018-08-17T23:20:58.774Z,21.86
2018-08-17T23:23:29.507Z,21.89
2018-08-17T23:25:59.498Z,21.75
2018-08-17T23:28:28.906Z,21.81
2018-08-17T23:30:59.907Z,21.86
2018-08-17T23:33:31.406Z,21.94
2018-08-17T23:36:01.326Z,21.86
2018-08-17T23:38:32.674Z,21.98
2018-08-17T23:41:02.767Z,21.91
2018-08-17T23:43:33.496Z,21.93
2018-08-17T23:46:04.943Z,21.89
2018-08-17T23:48:34.536Z,21.89
2018-08-17T23:51:06.110Z,21.88
2018-08-17T23:53:36.325Z,21.86
2018-08-17T23:56:06.226Z,21.94
2018-08-17T23:58:38.957Z,22.02
